createdAt,value
2023-02-06T00:01:52.341Z,100895.34
2023-02-06T00:06:54.550Z,100888.59
2023-02-06T00:11:56.761Z,100945.97
2023-02-06T00:17:01.150Z,100892.31
2023-02-06T00:22:03.421Z,100912.81
2023-02-06T00:27:05.620Z,100924.72
2023-02-06T00:32:07.724Z,100890.19
2023-02-06T00:37:10.597Z,100894.28
2023-02-06T00:42:12.736Z,100881.41
2023-02-06T00:47:15.057Z,100895.34
2023-02-06T00:52:17.356Z,100878.09
2023-02-06T00:57:21.073Z,100823.59
2023-02-06T01:02:23.233Z,100882.97
2023-02-06T01:07:25.495Z,100923.09
2023-02-06T01:12:27.696Z,100888.84
2023-02-06T01:17:33.089Z,100881.25
2023-02-06T01:22:36.734Z,100887.22
2023-02-06T01:27:40.012Z,100869.91
2023-02-06T01:32:43.095Z,100864.94
2023-02-06T01:37:45.359Z,100931.56
2023-02-06T01:42:47.696Z,100947.53
2023-02-06T01:47:54.075Z,100899.59
2023-02-06T01:52:56.563Z,100891.09
2023-02-06T01:58:01.421Z,100926.28
2023-02-06T02:03:05.512Z,100844.97
2023-02-06T02:08:27.860Z,100917.56
2023-02-06T02:13:32.243Z,100921.84
2023-02-06T02:19:21.944Z,100882.22
2023-02-06T02:25:12.450Z,100832.44
2023-02-06T02:30:26.904Z,100931.97
2023-02-06T02:36:03.785Z,100919.28
2023-02-06T02:41:29.321Z,100881.19
2023-02-06T02:46:36.120Z,100905.13
2023-02-06T02:51:39.627Z,100927.56
2023-02-06T02:56:42.117Z,100873.53
2023-02-06T03:01:58.900Z,100863.28
2023-02-06T03:07:18.385Z,100955.47
2023-02-06T03:12:32.247Z,100940.59
2023-02-06T03:17:42.662Z,100912.84
2023-02-06T03:22:49.116Z,100884.19
2023-02-06T03:27:53.302Z,100942.72
2023-02-06T03:33:04.027Z,100912.25
2023-02-06T03:38:08.902Z,100888.47
2023-02-06T03:43:18.808Z,100859.41
2023-02-06T03:48:40.770Z,100923.50
2023-02-06T03:53:46.072Z,100891.69
2023-02-06T03:58:48.416Z,100831.94
2023-02-06T04:03:52.242Z,100886.19
2023-02-06T04:08:54.490Z,100879.25
2023-02-06T04:13:56.759Z,100853.84
2023-02-06T04:18:59.068Z,100851.94
2023-02-06T04:24:01.485Z,100887.75
2023-02-06T04:29:04.096Z,100885.69
2023-02-06T04:34:06.565Z,100900.31
2023-02-06T04:39:09.290Z,100778.97
2023-02-06T04:44:11.539Z,100907.72
2023-02-06T04:49:15.574Z,100901.72
2023-02-06T04:54:18.282Z,100895.53
2023-02-06T04:59:20.597Z,100898.06
2023-02-06T05:05:13.360Z,100840.59
2023-02-06T05:10:15.963Z,100815.94
2023-02-06T05:15:18.341Z,100891.34
2023-02-06T05:20:20.791Z,100901.56
2023-02-06T05:25:23.109Z,100836.53
2023-02-06T05:30:25.786Z,100840.75
2023-02-06T05:35:28.452Z,100872.72
2023-02-06T05:40:30.803Z,100862.25
2023-02-06T05:45:35.153Z,100844.28
2023-02-06T05:50:38.423Z,100827.88
2023-02-06T05:55:50.142Z,100900.00
2023-02-06T06:00:53.045Z,100896.13
2023-02-06T06:05:55.362Z,100874.97
2023-02-06T06:10:57.662Z,100903.91
2023-02-06T06:16:00.035Z,100933.88
2023-02-06T06:21:02.322Z,100844.19
2023-02-06T06:26:05.517Z,100873.16
2023-02-06T06:31:15.090Z,100922.47
2023-02-06T06:36:17.579Z,100925.31
2023-02-06T06:41:19.821Z,100877.19
2023-02-06T06:46:22.172Z,100874.16
2023-02-06T06:51:26.730Z,100907.22
2023-02-06T06:56:28.886Z,100903.38
2023-02-06T07:01:31.267Z,100909.22
2023-02-06T07:06:33.538Z,100918.63
2023-02-06T07:11:35.797Z,100844.34
2023-02-06T07:16:38.130Z,100862.16
2023-02-06T07:21:40.589Z,100830.84
2023-02-06T07:26:43.449Z,100885.41
2023-02-06T07:31:45.922Z,100900.50
2023-02-06T07:36:48.267Z,100889.94
2023-02-06T07:41:50.904Z,100899.63
2023-02-06T07:46:55.378Z,100888.25
2023-02-06T07:51:57.605Z,100929.63
2023-02-06T07:56:59.842Z,100883.13
2023-02-06T08:02:02.022Z,100875.00
2023-02-06T08:07:06.175Z,100910.72
2023-02-06T08:12:10.942Z,100869.47
2023-02-06T08:17:14.161Z,100852.66
2023-02-06T08:22:16.401Z,100856.97
2023-02-06T08:27:18.771Z,100938.91
2023-02-06T08:32:20.969Z,100945.91
2023-02-06T08:37:24.337Z,100928.56
2023-02-06T08:42:26.612Z,100895.94
2023-02-06T08:47:28.923Z,100946.91
2023-02-06T08:52:31.084Z,100948.72
2023-02-06T08:57:33.185Z,100866.22
2023-02-06T09:02:35.883Z,100889.94
2023-02-06T09:07:38.079Z,100906.53
2023-02-06T09:12:40.413Z,100914.31
2023-02-06T09:17:42.649Z,100907.06
2023-02-06T09:22:44.917Z,100974.00
2023-02-06T09:27:47.417Z,100937.16
2023-02-06T09:32:49.877Z,100964.28
2023-02-06T09:37:52.098Z,100952.38
2023-02-06T09:42:55.531Z,100840.25
2023-02-06T09:48:19.621Z,100911.53
2023-02-06T09:53:36.583Z,100865.91
2023-02-06T09:59:05.817Z,101031.78
2023-02-06T10:04:38.659Z,100950.88
2023-02-06T10:09:51.306Z,100896.59
2023-02-06T10:15:45.289Z,101014.75
2023-02-06T10:20:55.880Z,100903.81
2023-02-06T10:26:18.258Z,100932.53
2023-02-06T10:31:45.174Z,100993.94
2023-02-06T10:37:11.336Z,100921.47
2023-02-06T10:42:47.177Z,100900.00
2023-02-06T10:48:01.661Z,100961.53
2023-02-06T10:53:35.286Z,100859.13
2023-02-06T10:58:47.308Z,100791.63
2023-02-06T11:03:58.506Z,100860.22
2023-02-06T11:09:00.739Z,100876.84
2023-02-06T11:14:28.487Z,100871.38
2023-02-06T11:19:41.484Z,100925.50
2023-02-06T11:25:04.496Z,100939.63
2023-02-06T11:30:40.482Z,100799.44
2023-02-06T11:35:53.008Z,100926.69
2023-02-06T11:41:17.750Z,100957.28
2023-02-06T11:46:26.765Z,100918.94
2023-02-06T11:51:56.710Z,100932.66
2023-02-06T11:57:09.326Z,100996.44
2023-02-06T12:02:34.128Z,100907.00
2023-02-06T12:07:46.078Z,100959.94
2023-02-06T12:12:58.374Z,100883.34
2023-02-06T12:18:09.407Z,100926.16
2023-02-06T12:23:37.216Z,100860.25
2023-02-06T12:29:01.162Z,100951.59
2023-02-06T12:34:32.101Z,100844.75
2023-02-06T12:39:34.510Z,100891.69
2023-02-06T12:44:57.644Z,100888.00
2023-02-06T12:50:21.901Z,100873.13
2023-02-06T12:55:32.244Z,100875.44
2023-02-06T13:01:02.323Z,100857.81
2023-02-06T13:06:23.110Z,100818.06
2023-02-06T13:11:39.247Z,100795.53
2023-02-06T13:16:49.808Z,100788.13
2023-02-06T13:22:14.368Z,100813.13
2023-02-06T13:27:39.049Z,100788.53
2023-02-06T13:32:46.245Z,100826.06
2023-02-06T13:37:50.838Z,100772.59
2023-02-06T13:43:11.116Z,100713.72
2023-02-06T13:48:50.243Z,100777.69
2023-02-06T13:54:45.227Z,100865.91
2023-02-06T14:00:03.669Z,100702.66
2023-02-06T14:05:13.600Z,100779.09
2023-02-06T14:10:25.080Z,100766.25
2023-02-06T14:16:18.509Z,100795.72
2023-02-06T14:21:56.175Z,100869.69
2023-02-06T14:27:28.508Z,100864.69
2023-02-06T14:32:39.498Z,100806.16
2023-02-06T14:38:11.037Z,100783.19
2023-02-06T14:43:20.017Z,100812.06
2023-02-06T14:48:50.154Z,100827.78
2023-02-06T14:54:04.826Z,100882.97
2023-02-06T14:59:13.162Z,100810.53
2023-02-06T15:04:23.489Z,100813.97
2023-02-06T15:09:37.850Z,100890.53
2023-02-06T15:14:54.161Z,100853.53
2023-02-06T15:19:56.980Z,100839.72
2023-02-06T15:25:23.703Z,100810.28
2023-02-06T15:30:26.805Z,100864.75
2023-02-06T15:35:37.152Z,100873.63
2023-02-06T15:40:46.148Z,100850.56
2023-02-06T15:45:51.061Z,100796.81
2023-02-06T15:51:38.101Z,100800.81
2023-02-06T15:56:42.438Z,100836.09
2023-02-06T16:01:44.860Z,100818.97
2023-02-06T16:07:06.522Z,100799.34
2023-02-06T16:12:11.205Z,100876.22
2023-02-06T16:17:13.262Z,100811.19
2023-02-06T16:22:24.014Z,100766.91
2023-02-06T16:27:28.460Z,100826.38
2023-02-06T16:32:32.461Z,100790.25
2023-02-06T16:37:34.648Z,100783.22
2023-02-06T16:42:41.500Z,100787.22
2023-02-06T16:47:43.894Z,100822.81
2023-02-06T16:52:55.325Z,100803.28
2023-02-06T16:58:01.009Z,100804.34
2023-02-06T17:03:03.152Z,100832.97
2023-02-06T17:08:19.523Z,100838.78
2023-02-06T17:13:24.533Z,100818.88
2023-02-06T17:18:26.808Z,100749.47
2023-02-06T17:23:29.091Z,100781.97
2023-02-06T17:28:31.311Z,100793.13
2023-02-06T17:33:33.837Z,100789.28
2023-02-06T17:38:36.074Z,100841.56
2023-02-06T17:43:38.507Z,100791.16
2023-02-06T17:48:42.788Z,100868.69
2023-02-06T17:53:45.273Z,100875.66
2023-02-06T17:58:47.832Z,100904.50
2023-02-06T18:03:50.559Z,100762.66
2023-02-06T18:08:53.019Z,100837.13
2023-02-06T18:13:55.883Z,100719.34
2023-02-06T18:18:58.837Z,100861.03
2023-02-06T18:24:01.194Z,100798.38
2023-02-06T18:29:05.544Z,100821.41
2023-02-06T18:34:09.106Z,100819.84
2023-02-06T18:39:12.907Z,100703.94
2023-02-06T18:44:15.103Z,100733.91
2023-02-06T18:49:17.856Z,100742.56
2023-02-06T18:54:20.084Z,100789.81
2023-02-06T18:59:22.325Z,100684.00
2023-02-06T19:04:24.772Z,100850.13
2023-02-06T19:09:27.048Z,100775.41
2023-02-06T19:14:29.210Z,100771.72
2023-02-06T19:19:31.527Z,100833.25
2023-02-06T19:24:33.807Z,100685.78
2023-02-06T19:29:36.763Z,100823.84
2023-02-06T19:34:41.980Z,100814.34
2023-02-06T19:39:44.518Z,100754.63
2023-02-06T19:44:46.985Z,100673.31
2023-02-06T19:49:52.978Z,100727.91
2023-02-06T19:54:55.259Z,100607.59
2023-02-06T19:59:57.579Z,100723.91
2023-02-06T20:05:02.171Z,100667.56
2023-02-06T20:10:05.610Z,100728.03
2023-02-06T20:15:08.592Z,100635.66
2023-02-06T20:20:12.364Z,100688.19
2023-02-06T20:25:14.641Z,100689.50
2023-02-06T20:30:18.800Z,100676.28
2023-02-06T20:35:21.074Z,100639.75
2023-02-06T20:40:23.432Z,100675.75
2023-02-06T20:45:26.132Z,100620.59
2023-02-06T20:50:29.669Z,100658.19
2023-02-06T20:55:32.352Z,100641.72
2023-02-06T21:00:35.598Z,100619.31
2023-02-06T21:05:39.112Z,100539.75
2023-02-06T21:10:41.227Z,100618.69
2023-02-06T21:15:49.340Z,100577.81
2023-02-06T21:20:53.081Z,100662.59
2023-02-06T21:25:56.322Z,100576.91
2023-02-06T21:31:16.529Z,100460.75
2023-02-06T21:36:21.210Z,100578.09
2023-02-06T21:41:23.619Z,100605.69
2023-02-06T21:46:26.217Z,100589.44
2023-02-06T21:51:28.807Z,100586.25
2023-02-06T21:56:31.508Z,100446.94
2023-02-06T22:01:34.822Z,100430.19
2023-02-06T22:06:37.625Z,100428.28
2023-02-06T22:11:40.566Z,100500.06
2023-02-06T22:16:43.421Z,100484.38
2023-02-06T22:21:45.921Z,100464.88
2023-02-06T22:26:50.533Z,100405.00
2023-02-06T22:31:52.698Z,100449.50
2023-02-06T22:36:54.957Z,100494.22
2023-02-06T22:41:57.195Z,100476.84
2023-02-06T22:46:59.634Z,100414.00
2023-02-06T22:52:01.765Z,100480.44
2023-02-06T22:57:04.093Z,100522.69
2023-02-06T23:02:06.418Z,100463.72
2023-02-06T23:07:08.760Z,100398.53
2023-02-06T23:12:11.826Z,100309.38
2023-02-06T23:17:14.122Z,100410.94
2023-02-06T23:22:16.392Z,100476.09
2023-02-06T23:27:19.857Z,100326.16
2023-02-06T23:32:22.078Z,100353.00
2023-02-06T23:37:25.186Z,100440.97
2023-02-06T23:42:29.397Z,100409.56
2023-02-06T23:47:32.052Z,100315.91
2023-02-06T23:52:34.248Z,100347.13
2023-02-06T23:57:39.224Z,100454.56
